sensor_id;sensor_type;location;lat;lon;timestamp;temperature;humidity
40660;DHT22;26753;45.544;9.232;2024-03-23T00:55:34;16.00;99.90
40660;DHT22;26753;45.544;9.232;2024-03-23T00:58:00;15.90;99.90
40660;DHT22;26753;45.544;9.232;2024-03-23T01:00:25;15.90;99.90
40660;DHT22;26753;45.544;9.232;2024-03-23T01:02:51;15.80;99.90
40660;DHT22;26753;45.544;9.232;2024-03-23T01:05:16;15.80;99.90
40660;DHT22;26753;45.544;9.232;2024-03-23T01:07:42;15.70;99.90
40660;DHT22;26753;45.544;9.232;2024-03-23T01:10:08;15.70;99.90
40660;DHT22;26753;45.544;9.232;2024-03-23T01:12:34;15.60;99.90
40660;DHT22;26753;45.544;9.232;2024-03-23T01:14:59;15.50;99.90
40660;DHT22;26753;45.544;9.232;2024-03-23T01:17:25;15.70;99.90
40660;DHT22;26753;45.544;9.232;2024-03-23T01:19:51;15.30;99.90
40660;DHT22;26753;45.544;9.232;2024-03-23T01:22:16;15.50;99.90
40660;DHT22;26753;45.544;9.232;2024-03-23T01:24:42;15.40;99.90
40660;DHT22;26753;45.544;9.232;2024-03-23T01:27:08;15.70;99.90
40660;DHT22;26753;45.544;9.232;2024-03-23T01:29:34;15.30;99.90
40660;DHT22;26753;45.544;9.232;2024-03-23T01:32:00;15.40;99.90
40660;DHT22;26753;45.544;9.232;2024-03-23T01:34:26;15.30;99.90
40660;DHT22;26753;45.544;9.232;2024-03-23T01:36:52;15.40;99.90
40660;DHT22;26753;45.544;9.232;2024-03-23T01:39:17;15.50;99.90
40660;DHT22;26753;45.544;9.232;2024-03-23T01:41:43;15.60;99.90
40660;DHT22;26753;45.544;9.232;2024-03-23T01:44:09;15.60;99.90
40660;DHT22;26753;45.544;9.232;2024-03-23T01:46:36;15.70;99.90
40660;DHT22;26753;45.544;9.232;2024-03-23T01:49:03;15.80;99.90
40660;DHT22;26753;45.544;9.232;2024-03-23T01:51:30;15.80;99.90
40660;DHT22;26753;45.544;9.232;2024-03-23T01:53:56;15.80;99.90
40660;DHT22;26753;45.544;9.232;2024-03-23T01:56:22;15.80;99.90
40660;DHT22;26753;45.544;9.232;2024-03-23T01:58:48;15.80;99.90
40660;DHT22;26753;45.544;9.232;2024-03-23T02:01:14;15.70;99.90
40660;DHT22;26753;45.544;9.232;2024-03-23T02:03:39;15.60;99.90
40660;DHT22;26753;45.544;9.232;2024-03-23T02:06:05;15.60;99.90
40660;DHT22;26753;45.544;9.232;2024-03-23T02:08:33;15.60;99.90
40660;DHT22;26753;45.544;9.232;2024-03-23T02:10:59;15.60;99.90
40660;DHT22;26753;45.544;9.232;2024-03-23T02:13:25;15.70;99.90
40660;DHT22;26753;45.544;9.232;2024-03-23T02:15:51;15.50;99.90
40660;DHT22;26753;45.544;9.232;2024-03-23T02:18:16;15.40;99.90
40660;DHT22;26753;45.544;9.232;2024-03-23T02:20:42;15.50;99.90
40660;DHT22;26753;45.544;9.232;2024-03-23T02:23:15;15.40;99.90
40660;DHT22;26753;45.544;9.232;2024-03-23T02:25:40;15.40;99.90
40660;DHT22;26753;45.544;9.232;2024-03-23T02:28:06;15.20;99.90
40660;DHT22;26753;45.544;9.232;2024-03-23T02:30:32;15.20;99.90
40660;DHT22;26753;45.544;9.232;2024-03-23T02:32:57;15.30;99.90
40660;DHT22;26753;45.544;9.232;2024-03-23T02:35:23;15.00;99.90
40660;DHT22;26753;45.544;9.232;2024-03-23T02:37:49;14.90;99.90
40660;DHT22;26753;45.544;9.232;2024-03-23T02:40:15;14.80;99.90
40660;DHT22;26753;45.544;9.232;2024-03-23T02:42:41;14.80;99.90
40660;DHT22;26753;45.544;9.232;2024-03-23T02:45:07;14.80;99.90
40660;DHT22;26753;45.544;9.232;2024-03-23T02:47:33;14.80;99.90
40660;DHT22;26753;45.544;9.232;2024-03-23T02:49:58;14.80;99.90
40660;DHT22;26753;45.544;9.232;2024-03-23T02:52:24;14.80;99.90
40660;DHT22;26753;45.544;9.232;2024-03-23T02:54:50;14.80;99.90
40660;DHT22;26753;45.544;9.232;2024-03-23T02:57:16;14.80;99.90
40660;DHT22;26753;45.544;9.232;2024-03-23T02:59:41;14.60;99.90
40660;DHT22;26753;45.544;9.232;2024-03-23T03:02:07;14.70;99.90
40660;DHT22;26753;45.544;9.232;2024-03-23T03:04:33;14.00;99.90
40660;DHT22;26753;45.544;9.232;2024-03-23T03:06:59;14.80;99.90
40660;DHT22;26753;45.544;9.232;2024-03-23T03:09:24;14.70;99.90
40660;DHT22;26753;45.544;9.232;2024-03-23T03:11:50;14.80;99.90
40660;DHT22;26753;45.544;9.232;2024-03-23T03:14:16;14.80;99.90
40660;DHT22;26753;45.544;9.232;2024-03-23T03:16:41;14.80;99.90
40660;DHT22;26753;45.544;9.232;2024-03-23T03:19:07;13.80;99.90
40660;DHT22;26753;45.544;9.232;2024-03-23T03:21:33;14.70;99.90
40660;DHT22;26753;45.544;9.232;2024-03-23T03:23:58;15.20;99.90
40660;DHT22;26753;45.544;9.232;2024-03-23T03:26:24;14.60;99.90
40660;DHT22;26753;45.544;9.232;2024-03-23T03:28:50;14.70;99.90
40660;DHT22;26753;45.544;9.232;2024-03-23T03:31:16;14.60;99.90
40660;DHT22;26753;45.544;9.232;2024-03-23T03:33:42;14.60;99.90
40660;DHT22;26753;45.544;9.232;2024-03-23T03:36:08;14.60;99.90
40660;DHT22;26753;45.544;9.232;2024-03-23T03:38:34;14.50;99.90
40660;DHT22;26753;45.544;9.232;2024-03-23T03:41:01;16.10;99.90
40660;DHT22;26753;45.544;9.232;2024-03-23T03:43:27;14.80;99.90
40660;DHT22;26753;45.544;9.232;2024-03-23T03:45:53;14.70;99.90
40660;DHT22;26753;45.544;9.232;2024-03-23T03:48:19;14.60;99.90
40660;DHT22;26753;45.544;9.232;2024-03-23T03:50:45;14.30;99.90
40660;DHT22;26753;45.544;9.232;2024-03-23T03:53:11;14.30;99.90
40660;DHT22;26753;45.544;9.232;2024-03-23T03:55:38;14.40;99.90
40660;DHT22;26753;45.544;9.232;2024-03-23T03:58:04;15.00;99.90
40660;DHT22;26753;45.544;9.232;2024-03-23T04:00:32;13.80;99.90
40660;DHT22;26753;45.544;9.232;2024-03-23T04:02:58;14.40;99.90
40660;DHT22;26753;45.544;9.232;2024-03-23T04:05:24;14.40;99.90
40660;DHT22;26753;45.544;9.232;2024-03-23T04:07:50;14.30;99.90
40660;DHT22;26753;45.544;9.232;2024-03-23T04:10:15;14.30;99.90
40660;DHT22;26753;45.544;9.232;2024-03-23T04:12:42;13.70;99.90
40660;DHT22;26753;45.544;9.232;2024-03-23T04:15:08;13.90;99.90
40660;DHT22;26753;45.544;9.232;2024-03-23T04:17:34;13.70;99.90
40660;DHT22;26753;45.544;9.232;2024-03-23T04:20:00;13.10;99.90
40660;DHT22;26753;45.544;9.232;2024-03-23T04:22:27;15.20;99.90
40660;DHT22;26753;45.544;9.232;2024-03-23T04:24:54;15.00;99.90
40660;DHT22;26753;45.544;9.232;2024-03-23T04:27:20;14.20;99.90
40660;DHT22;26753;45.544;9.232;2024-03-23T04:29:49;14.10;99.90
40660;DHT22;26753;45.544;9.232;2024-03-23T04:32:15;14.20;99.90
40660;DHT22;26753;45.544;9.232;2024-03-23T04:34:41;14.50;99.90
40660;DHT22;26753;45.544;9.232;2024-03-23T04:37:07;14.10;99.90
40660;DHT22;26753;45.544;9.232;2024-03-23T04:39:33;14.80;99.90
40660;DHT22;26753;45.544;9.232;2024-03-23T04:41:59;13.20;99.90
40660;DHT22;26753;45.544;9.232;2024-03-23T04:44:24;13.90;99.90
40660;DHT22;26753;45.544;9.232;2024-03-23T04:46:50;14.10;99.90
40660;DHT22;26753;45.544;9.232;2024-03-23T04:49:16;13.30;99.90
40660;DHT22;26753;45.544;9.232;2024-03-23T04:51:41;12.40;99.90
40660;DHT22;26753;45.544;9.232;2024-03-23T04:54:14;13.90;99.90
40660;DHT22;26753;45.544;9.232;2024-03-23T04:56:40;12.90;99.90
40660;DHT22;26753;45.544;9.232;2024-03-23T04:59:05;13.90;99.90
40660;DHT22;26753;45.544;9.232;2024-03-23T05:01:31;14.50;99.90
40660;DHT22;26753;45.544;9.232;2024-03-23T05:03:57;15.00;99.90
40660;DHT22;26753;45.544;9.232;2024-03-23T05:06:24;14.00;99.90
40660;DHT22;26753;45.544;9.232;2024-03-23T05:08:50;13.90;99.90
40660;DHT22;26753;45.544;9.232;2024-03-23T05:11:16;14.10;99.90
40660;DHT22;26753;45.544;9.232;2024-03-23T05:13:42;14.10;99.90
40660;DHT22;26753;45.544;9.232;2024-03-23T05:16:07;14.10;99.90
40660;DHT22;26753;45.544;9.232;2024-03-23T05:18:34;14.20;99.90
40660;DHT22;26753;45.544;9.232;2024-03-23T05:21:00;14.20;99.90
40660;DHT22;26753;45.544;9.232;2024-03-23T05:23:26;14.20;99.90
40660;DHT22;26753;45.544;9.232;2024-03-23T05:25:53;14.30;99.90
40660;DHT22;26753;45.544;9.232;2024-03-23T05:28:19;14.30;99.90
40660;DHT22;26753;45.544;9.232;2024-03-23T05:30:53;14.20;99.90
40660;DHT22;26753;45.544;9.232;2024-03-23T05:33:20;14.20;99.90
40660;DHT22;26753;45.544;9.232;2024-03-23T05:35:46;14.20;99.90
40660;DHT22;26753;45.544;9.232;2024-03-23T05:38:13;14.20;99.90
40660;DHT22;26753;45.544;9.232;2024-03-23T05:40:39;14.10;99.90
40660;DHT22;26753;45.544;9.232;2024-03-23T05:43:09;14.30;99.90
40660;DHT22;26753;45.544;9.232;2024-03-23T05:45:34;14.20;99.90
40660;DHT22;26753;45.544;9.232;2024-03-23T05:48:00;14.10;99.90
40660;DHT22;26753;45.544;9.232;2024-03-23T05:50:26;13.10;99.90
40660;DHT22;26753;45.544;9.232;2024-03-23T05:52:52;14.60;99.90
40660;DHT22;26753;45.544;9.232;2024-03-23T05:55:17;14.50;99.90
40660;DHT22;26753;45.544;9.232;2024-03-23T05:57:43;12.00;99.90
40660;DHT22;26753;45.544;9.232;2024-03-23T06:00:09;14.70;99.90
40660;DHT22;26753;45.544;9.232;2024-03-23T06:02:42;14.30;99.90
40660;DHT22;26753;45.544;9.232;2024-03-23T06:05:12;14.40;99.90
40660;DHT22;26753;45.544;9.232;2024-03-23T06:07:38;14.40;99.90
40660;DHT22;26753;45.544;9.232;2024-03-23T06:10:05;16.20;99.90
40660;DHT22;26753;45.544;9.232;2024-03-23T06:12:31;14.50;99.90
40660;DHT22;26753;45.544;9.232;2024-03-23T06:14:57;16.00;99.90
40660;DHT22;26753;45.544;9.232;2024-03-23T06:17:22;14.50;99.90
40660;DHT22;26753;45.544;9.232;2024-03-23T06:19:48;14.20;99.90
40660;DHT22;26753;45.544;9.232;2024-03-23T06:22:14;15.00;99.90
40660;DHT22;26753;45.544;9.232;2024-03-23T06:24:40;15.10;99.90
40660;DHT22;26753;45.544;9.232;2024-03-23T06:27:06;15.90;99.90
40660;DHT22;26753;45.544;9.232;2024-03-23T06:29:32;15.50;99.90
40660;DHT22;26753;45.544;9.232;2024-03-23T06:31:57;15.60;99.90
40660;DHT22;26753;45.544;9.232;2024-03-23T06:34:23;14.90;99.90
40660;DHT22;26753;45.544;9.232;2024-03-23T06:36:50;13.90;99.90
40660;DHT22;26753;45.544;9.232;2024-03-23T06:39:16;15.10;99.90
40660;DHT22;26753;45.544;9.232;2024-03-23T06:41:42;15.10;99.90
40660;DHT22;26753;45.544;9.232;2024-03-23T06:44:08;15.30;99.90
40660;DHT22;26753;45.544;9.232;2024-03-23T06:46:34;15.30;99.90
40660;DHT22;26753;45.544;9.232;2024-03-23T06:49:00;14.80;99.90
40660;DHT22;26753;45.544;9.232;2024-03-23T06:51:25;15.40;99.90
40660;DHT22;26753;45.544;9.232;2024-03-23T06:53:51;15.50;99.90
40660;DHT22;26753;45.544;9.232;2024-03-23T06:56:17;15.50;99.90
40660;DHT22;26753;45.544;9.232;2024-03-23T06:58:42;14.90;99.90
40660;DHT22;26753;45.544;9.232;2024-03-23T07:01:08;15.60;99.90
40660;DHT22;26753;45.544;9.232;2024-03-23T07:03:34;15.60;99.90
40660;DHT22;26753;45.544;9.232;2024-03-23T07:05:59;15.70;99.90
40660;DHT22;26753;45.544;9.232;2024-03-23T07:08:25;15.90;99.90
40660;DHT22;26753;45.544;9.232;2024-03-23T07:10:51;15.90;99.90
40660;DHT22;26753;45.544;9.232;2024-03-23T07:13:16;15.70;99.90
40660;DHT22;26753;45.544;9.232;2024-03-23T07:15:42;15.90;99.90
40660;DHT22;26753;45.544;9.232;2024-03-23T07:18:08;16.00;99.90
40660;DHT22;26753;45.544;9.232;2024-03-23T07:20:34;16.10;99.90
40660;DHT22;26753;45.544;9.232;2024-03-23T07:23:00;16.20;99.90
40660;DHT22;26753;45.544;9.232;2024-03-23T07:25:25;16.30;99.90
40660;DHT22;26753;45.544;9.232;2024-03-23T07:27:53;16.40;99.90
40660;DHT22;26753;45.544;9.232;2024-03-23T07:30:19;16.50;99.90
40660;DHT22;26753;45.544;9.232;2024-03-23T07:32:45;16.80;99.90
40660;DHT22;26753;45.544;9.232;2024-03-23T07:35:10;16.60;99.90
40660;DHT22;26753;45.544;9.232;2024-03-23T07:37:36;16.70;99.90
40660;DHT22;26753;45.544;9.232;2024-03-23T07:40:02;16.90;99.90
40660;DHT22;26753;45.544;9.232;2024-03-23T07:42:28;16.90;99.90
40660;DHT22;26753;45.544;9.232;2024-03-23T07:44:54;17.00;99.90
40660;DHT22;26753;45.544;9.232;2024-03-23T07:47:22;17.10;99.90
40660;DHT22;26753;45.544;9.232;2024-03-23T07:49:48;17.10;99.90
40660;DHT22;26753;45.544;9.232;2024-03-23T07:52:14;17.20;99.90
40660;DHT22;26753;45.544;9.232;2024-03-23T07:54:39;17.20;99.90
40660;DHT22;26753;45.544;9.232;2024-03-23T07:57:05;17.30;99.90
40660;DHT22;26753;45.544;9.232;2024-03-23T07:59:32;17.40;99.90
40660;DHT22;26753;45.544;9.232;2024-03-23T08:01:59;17.40;99.90
40660;DHT22;26753;45.544;9.232;2024-03-23T08:04:27;15.50;99.90
40660;DHT22;26753;45.544;9.232;2024-03-23T08:06:52;17.40;99.90
40660;DHT22;26753;45.544;9.232;2024-03-23T08:09:18;17.50;99.90
40660;DHT22;26753;45.544;9.232;2024-03-23T08:11:44;17.30;99.90
40660;DHT22;26753;45.544;9.232;2024-03-23T08:14:12;17.30;99.90
40660;DHT22;26753;45.544;9.232;2024-03-23T08:16:37;17.30;99.90
40660;DHT22;26753;45.544;9.232;2024-03-23T08:19:03;17.20;99.90
40660;DHT22;26753;45.544;9.232;2024-03-23T08:21:29;17.10;99.90
40660;DHT22;26753;45.544;9.232;2024-03-23T08:23:54;16.90;99.90
40660;DHT22;26753;45.544;9.232;2024-03-23T08:26:20;16.90;99.90
40660;DHT22;26753;45.544;9.232;2024-03-23T08:28:46;17.00;99.90
40660;DHT22;26753;45.544;9.232;2024-03-23T08:31:12;17.60;99.90
40660;DHT22;26753;45.544;9.232;2024-03-23T08:33:39;17.00;99.90
40660;DHT22;26753;45.544;9.232;2024-03-23T08:36:06;17.10;99.90
40660;DHT22;26753;45.544;9.232;2024-03-23T08:38:33;17.10;99.90
40660;DHT22;26753;45.544;9.232;2024-03-23T08:41:03;17.10;99.90
40660;DHT22;26753;45.544;9.232;2024-03-23T08:43:30;17.10;99.90
40660;DHT22;26753;45.544;9.232;2024-03-23T08:46:06;17.00;99.90
40660;DHT22;26753;45.544;9.232;2024-03-23T08:48:33;16.90;99.90
40660;DHT22;26753;45.544;9.232;2024-03-23T08:51:03;16.90;99.90
40660;DHT22;26753;45.544;9.232;2024-03-23T08:53:29;16.90;99.90
40660;DHT22;26753;45.544;9.232;2024-03-23T08:55:56;16.90;99.90
40660;DHT22;26753;45.544;9.232;2024-03-23T08:58:23;16.90;99.90
40660;DHT22;26753;45.544;9.232;2024-03-23T09:00:50;16.90;99.90
40660;DHT22;26753;45.544;9.232;2024-03-23T09:03:16;17.00;99.90
40660;DHT22;26753;45.544;9.232;2024-03-23T09:05:42;17.20;99.90
40660;DHT22;26753;45.544;9.232;2024-03-23T09:08:07;17.30;99.90
40660;DHT22;26753;45.544;9.232;2024-03-23T09:10:39;17.50;99.90
40660;DHT22;26753;45.544;9.232;2024-03-23T09:13:06;17.60;99.90
40660;DHT22;26753;45.544;9.232;2024-03-23T09:15:36;17.70;99.90
40660;DHT22;26753;45.544;9.232;2024-03-23T09:18:02;18.20;99.90
40660;DHT22;26753;45.544;9.232;2024-03-23T09:20:28;17.80;99.90
40660;DHT22;26753;45.544;9.232;2024-03-23T09:22:54;17.70;99.90
40660;DHT22;26753;45.544;9.232;2024-03-23T09:25:20;17.80;99.90
40660;DHT22;26753;45.544;9.232;2024-03-23T09:27:49;17.80;99.90
40660;DHT22;26753;45.544;9.232;2024-03-23T09:30:15;17.80;99.90
40660;DHT22;26753;45.544;9.232;2024-03-23T09:32:44;17.90;99.90
40660;DHT22;26753;45.544;9.232;2024-03-23T09:35:10;18.00;99.90
40660;DHT22;26753;45.544;9.232;2024-03-23T09:37:36;18.00;99.90
40660;DHT22;26753;45.544;9.232;2024-03-23T09:40:02;18.00;99.90
40660;DHT22;26753;45.544;9.232;2024-03-23T09:42:28;18.00;99.90
40660;DHT22;26753;45.544;9.232;2024-03-23T09:44:57;18.10;99.90
40660;DHT22;26753;45.544;9.232;2024-03-23T09:47:24;18.30;99.90
40660;DHT22;26753;45.544;9.232;2024-03-23T09:49:50;18.40;99.90
40660;DHT22;26753;45.544;9.232;2024-03-23T09:52:16;18.50;99.90
40660;DHT22;26753;45.544;9.232;2024-03-23T09:54:42;18.80;99.90
40660;DHT22;26753;45.544;9.232;2024-03-23T09:57:08;18.90;99.90
40660;DHT22;26753;45.544;9.232;2024-03-23T09:59:33;19.10;99.90
40660;DHT22;26753;45.544;9.232;2024-03-23T10:02:01;19.30;99.90
40660;DHT22;26753;45.544;9.232;2024-03-23T10:04:40;19.50;99.90
40660;DHT22;26753;45.544;9.232;2024-03-23T10:07:13;19.80;99.90
40660;DHT22;26753;45.544;9.232;2024-03-23T10:09:39;19.80;99.90
40660;DHT22;26753;45.544;9.232;2024-03-23T10:12:11;20.10;99.90
40660;DHT22;26753;45.544;9.232;2024-03-23T10:14:40;20.00;99.90
40660;DHT22;26753;45.544;9.232;2024-03-23T10:17:20;19.80;99.90
40660;DHT22;26753;45.544;9.232;2024-03-23T10:19:51;19.80;99.90
40660;DHT22;26753;45.544;9.232;2024-03-23T10:22:21;20.00;99.90
40660;DHT22;26753;45.544;9.232;2024-03-23T10:24:48;20.20;99.90
40660;DHT22;26753;45.544;9.232;2024-03-23T10:27:18;20.30;99.90
40660;DHT22;26753;45.544;9.232;2024-03-23T10:29:48;20.40;99.90
40660;DHT22;26753;45.544;9.232;2024-03-23T10:32:14;20.70;99.90
40660;DHT22;26753;45.544;9.232;2024-03-23T10:34:41;20.60;99.90
40660;DHT22;26753;45.544;9.232;2024-03-23T10:37:07;20.50;99.90
40660;DHT22;26753;45.544;9.232;2024-03-23T10:39:43;20.40;99.90
40660;DHT22;26753;45.544;9.232;2024-03-23T10:42:09;20.40;99.90
40660;DHT22;26753;45.544;9.232;2024-03-23T10:44:39;20.20;99.90
40660;DHT22;26753;45.544;9.232;2024-03-23T10:47:05;19.90;99.90
40660;DHT22;26753;45.544;9.232;2024-03-23T10:49:32;19.50;99.90
40660;DHT22;26753;45.544;9.232;2024-03-23T10:52:03;19.50;99.90
40660;DHT22;26753;45.544;9.232;2024-03-23T10:54:33;19.50;99.90
40660;DHT22;26753;45.544;9.232;2024-03-23T10:57:15;19.50;99.90
40660;DHT22;26753;45.544;9.232;2024-03-23T10:59:42;19.70;99.90
40660;DHT22;26753;45.544;9.232;2024-03-23T11:02:18;19.90;99.90
40660;DHT22;26753;45.544;9.232;2024-03-23T11:04:45;20.10;99.90
40660;DHT22;26753;45.544;9.232;2024-03-23T11:07:31;20.10;99.90
40660;DHT22;26753;45.544;9.232;2024-03-23T11:09:58;20.10;99.90
40660;DHT22;26753;45.544;9.232;2024-03-23T11:15:12;20.10;99.90
40660;DHT22;26753;45.544;9.232;2024-03-23T11:17:38;20.00;99.90
40660;DHT22;26753;45.544;9.232;2024-03-23T11:20:05;19.70;99.90
40660;DHT22;26753;45.544;9.232;2024-03-23T11:27:44;19.60;99.90
40660;DHT22;26753;45.544;9.232;2024-03-23T11:30:37;19.70;99.90
40660;DHT22;26753;45.544;9.232;2024-03-23T11:33:06;19.50;99.90
40660;DHT22;26753;45.544;9.232;2024-03-23T11:35:33;19.40;99.90
40660;DHT22;26753;45.544;9.232;2024-03-23T11:40:29;19.30;99.90
40660;DHT22;26753;45.544;9.232;2024-03-23T11:43:02;19.40;99.90
40660;DHT22;26753;45.544;9.232;2024-03-23T11:45:28;19.40;99.90
40660;DHT22;26753;45.544;9.232;2024-03-23T11:48:11;19.50;99.90
40660;DHT22;26753;45.544;9.232;2024-03-23T11:50:43;19.50;99.90
40660;DHT22;26753;45.544;9.232;2024-03-23T11:53:18;19.40;99.90
40660;DHT22;26753;45.544;9.232;2024-03-23T11:58:20;19.30;99.90
40660;DHT22;26753;45.544;9.232;2024-03-23T12:00:59;19.20;99.90
40660;DHT22;26753;45.544;9.232;2024-03-23T12:03:28;19.00;99.90
40660;DHT22;26753;45.544;9.232;2024-03-23T12:05:55;19.60;99.90
40660;DHT22;26753;45.544;9.232;2024-03-23T12:08:31;18.80;99.90
40660;DHT22;26753;45.544;9.232;2024-03-23T12:11:08;18.70;99.90
40660;DHT22;26753;45.544;9.232;2024-03-23T12:13:35;18.50;99.90
40660;DHT22;26753;45.544;9.232;2024-03-23T12:16:17;18.50;99.90
40660;DHT22;26753;45.544;9.232;2024-03-23T12:18:47;18.60;99.90
40660;DHT22;26753;45.544;9.232;2024-03-23T12:21:13;18.60;99.90
40660;DHT22;26753;45.544;9.232;2024-03-23T12:23:39;18.70;99.90
40660;DHT22;26753;45.544;9.232;2024-03-23T12:26:05;18.70;99.90
40660;DHT22;26753;45.544;9.232;2024-03-23T12:28:32;18.80;99.90
40660;DHT22;26753;45.544;9.232;2024-03-23T12:30:58;18.80;99.90
40660;DHT22;26753;45.544;9.232;2024-03-23T12:33:23;18.80;99.90
40660;DHT22;26753;45.544;9.232;2024-03-23T12:35:53;18.80;99.90
40660;DHT22;26753;45.544;9.232;2024-03-23T12:38:19;18.80;99.90
40660;DHT22;26753;45.544;9.232;2024-03-23T12:40:51;19.00;99.90
40660;DHT22;26753;45.544;9.232;2024-03-23T12:43:17;18.90;99.90
40660;DHT22;26753;45.544;9.232;2024-03-23T12:45:46;18.80;99.90
40660;DHT22;26753;45.544;9.232;2024-03-23T12:48:12;18.80;99.90
40660;DHT22;26753;45.544;9.232;2024-03-23T12:50:38;19.40;99.90
40660;DHT22;26753;45.544;9.232;2024-03-23T12:53:04;18.70;99.90
40660;DHT22;26753;45.544;9.232;2024-03-23T12:55:29;18.60;99.90
40660;DHT22;26753;45.544;9.232;2024-03-23T12:57:55;18.50;99.90
40660;DHT22;26753;45.544;9.232;2024-03-23T13:00:22;18.60;99.90
40660;DHT22;26753;45.544;9.232;2024-03-23T13:02:47;18.60;99.90
40660;DHT22;26753;45.544;9.232;2024-03-23T13:05:13;18.80;99.90
40660;DHT22;26753;45.544;9.232;2024-03-23T13:07:39;18.90;99.90
40660;DHT22;26753;45.544;9.232;2024-03-23T13:10:05;19.10;99.90
40660;DHT22;26753;45.544;9.232;2024-03-23T13:12:32;19.20;99.90
40660;DHT22;26753;45.544;9.232;2024-03-23T13:14:59;19.30;99.90
40660;DHT22;26753;45.544;9.232;2024-03-23T13:17:25;19.90;99.90
40660;DHT22;26753;45.544;9.232;2024-03-23T13:19:55;20.70;99.90
40660;DHT22;26753;45.544;9.232;2024-03-23T13:22:23;26.20;99.90
40660;DHT22;26753;45.544;9.232;2024-03-23T13:24:49;30.60;99.40
40660;DHT22;26753;45.544;9.232;2024-03-23T13:27:15;33.40;91.20
40660;DHT22;26753;45.544;9.232;2024-03-23T13:29:41;35.80;78.00
40660;DHT22;26753;45.544;9.232;2024-03-23T13:32:07;34.80;71.40
40660;DHT22;26753;45.544;9.232;2024-03-23T13:34:34;36.20;68.90
40660;DHT22;26753;45.544;9.232;2024-03-23T13:37:00;38.70;63.60
40660;DHT22;26753;45.544;9.232;2024-03-23T13:39:26;38.10;61.70
40660;DHT22;26753;45.544;9.232;2024-03-23T13:41:57;39.40;59.00
40660;DHT22;26753;45.544;9.232;2024-03-23T13:44:23;39.20;56.70
40660;DHT22;26753;45.544;9.232;2024-03-23T13:46:49;35.20;57.50
40660;DHT22;26753;45.544;9.232;2024-03-23T13:49:26;36.50;58.50
40660;DHT22;26753;45.544;9.232;2024-03-23T13:51:53;39.20;55.70
40660;DHT22;26753;45.544;9.232;2024-03-23T13:54:19;40.30;54.60
40660;DHT22;26753;45.544;9.232;2024-03-23T13:56:45;41.40;52.20
40660;DHT22;26753;45.544;9.232;2024-03-23T13:59:11;41.00;51.30
40660;DHT22;26753;45.544;9.232;2024-03-23T14:01:37;38.30;51.80
40660;DHT22;26753;45.544;9.232;2024-03-23T14:04:04;36.70;54.00
40660;DHT22;26753;45.544;9.232;2024-03-23T14:06:29;37.40;53.30
40660;DHT22;26753;45.544;9.232;2024-03-23T14:08:55;38.70;52.00
40660;DHT22;26753;45.544;9.232;2024-03-23T14:11:21;38.50;51.60
40660;DHT22;26753;45.544;9.232;2024-03-23T14:13:47;36.60;52.10
40660;DHT22;26753;45.544;9.232;2024-03-23T14:16:13;36.10;53.60
40660;DHT22;26753;45.544;9.232;2024-03-23T14:18:38;35.80;52.80
40660;DHT22;26753;45.544;9.232;2024-03-23T14:21:04;33.80;54.50
40660;DHT22;26753;45.544;9.232;2024-03-23T14:23:31;32.00;56.60
40660;DHT22;26753;45.544;9.232;2024-03-23T14:25:59;30.50;58.70
40660;DHT22;26753;45.544;9.232;2024-03-23T14:28:25;31.30;58.60
40660;DHT22;26753;45.544;9.232;2024-03-23T14:30:51;32.20;58.20
40660;DHT22;26753;45.544;9.232;2024-03-23T14:33:18;34.10;56.80
40660;DHT22;26753;45.544;9.232;2024-03-23T14:35:56;33.00;56.20
40660;DHT22;26753;45.544;9.232;2024-03-23T14:38:25;31.70;57.50
40660;DHT22;26753;45.544;9.232;2024-03-23T14:40:51;29.30;60.20
40660;DHT22;26753;45.544;9.232;2024-03-23T14:43:19;28.20;62.50
40660;DHT22;26753;45.544;9.232;2024-03-23T14:46:14;27.00;64.70
40660;DHT22;26753;45.544;9.232;2024-03-23T14:48:43;25.80;67.10
40660;DHT22;26753;45.544;9.232;2024-03-23T14:51:10;25.00;69.10
40660;DHT22;26753;45.544;9.232;2024-03-23T14:53:37;24.30;70.90
40660;DHT22;26753;45.544;9.232;2024-03-23T14:56:06;23.90;72.70
40660;DHT22;26753;45.544;9.232;2024-03-23T14:58:32;23.50;74.20
40660;DHT22;26753;45.544;9.232;2024-03-23T15:01:05;23.30;75.60
40660;DHT22;26753;45.544;9.232;2024-03-23T15:03:38;23.00;77.00
40660;DHT22;26753;45.544;9.232;2024-03-23T15:06:08;22.70;78.30
40660;DHT22;26753;45.544;9.232;2024-03-23T15:08:37;22.50;79.90
40660;DHT22;26753;45.544;9.232;2024-03-23T15:11:03;22.40;80.90
40660;DHT22;26753;45.544;9.232;2024-03-23T15:13:34;22.30;82.30
40660;DHT22;26753;45.544;9.232;2024-03-23T15:16:00;22.10;84.20
40660;DHT22;26753;45.544;9.232;2024-03-23T15:18:26;21.90;85.60
40660;DHT22;26753;45.544;9.232;2024-03-23T15:20:56;23.40;88.00
40660;DHT22;26753;45.544;9.232;2024-03-23T15:23:22;21.60;89.90
40660;DHT22;26753;45.544;9.232;2024-03-23T15:25:58;21.60;90.70
40660;DHT22;26753;45.544;9.232;2024-03-23T15:28:24;21.70;90.90
40660;DHT22;26753;45.544;9.232;2024-03-23T15:30:52;21.70;91.50
40660;DHT22;26753;45.544;9.232;2024-03-23T15:33:18;21.80;91.80
40660;DHT22;26753;45.544;9.232;2024-03-23T15:35:44;21.90;92.30
40660;DHT22;26753;45.544;9.232;2024-03-23T15:38:10;21.80;92.60
40660;DHT22;26753;45.544;9.232;2024-03-23T15:40:36;21.90;93.20
40660;DHT22;26753;45.544;9.232;2024-03-23T15:43:01;21.90;93.70
40660;DHT22;26753;45.544;9.232;2024-03-23T15:45:28;22.00;93.90
40660;DHT22;26753;45.544;9.232;2024-03-23T15:47:53;22.00;93.90
40660;DHT22;26753;45.544;9.232;2024-03-23T15:50:20;22.10;93.90
40660;DHT22;26753;45.544;9.232;2024-03-23T15:52:46;22.10;94.10
40660;DHT22;26753;45.544;9.232;2024-03-23T15:55:14;22.00;95.00
40660;DHT22;26753;45.544;9.232;2024-03-23T15:57:40;22.00;95.50
40660;DHT22;26753;45.544;9.232;2024-03-23T16:00:06;22.10;95.60
40660;DHT22;26753;45.544;9.232;2024-03-23T16:02:33;22.00;95.50
40660;DHT22;26753;45.544;9.232;2024-03-23T16:04:59;21.90;95.80
40660;DHT22;26753;45.544;9.232;2024-03-23T16:07:28;21.60;96.30
40660;DHT22;26753;45.544;9.232;2024-03-23T16:09:54;21.60;96.90
40660;DHT22;26753;45.544;9.232;2024-03-23T16:12:19;21.50;97.30
40660;DHT22;26753;45.544;9.232;2024-03-23T16:14:45;21.60;97.60
40660;DHT22;26753;45.544;9.232;2024-03-23T16:17:10;21.70;97.70
40660;DHT22;26753;45.544;9.232;2024-03-23T16:19:36;21.70;97.70
40660;DHT22;26753;45.544;9.232;2024-03-23T16:22:02;21.60;98.10
40660;DHT22;26753;45.544;9.232;2024-03-23T16:24:28;21.50;98.10
40660;DHT22;26753;45.544;9.232;2024-03-23T16:26:53;21.40;98.20
40660;DHT22;26753;45.544;9.232;2024-03-23T16:29:19;21.50;98.50
40660;DHT22;26753;45.544;9.232;2024-03-23T16:31:45;21.70;98.50
40660;DHT22;26753;45.544;9.232;2024-03-23T16:34:10;21.80;98.30
40660;DHT22;26753;45.544;9.232;2024-03-23T16:36:36;21.90;98.40